createdAt,value
2022-11-25T00:00:41.449Z,30.63
2022-11-25T00:06:14.819Z,32.30
2022-11-25T00:11:38.929Z,29.20
2022-11-25T00:17:00.735Z,30.55
2022-11-25T00:22:22.515Z,30.23
2022-11-25T00:27:44.286Z,29.27
2022-11-25T00:33:06.606Z,30.23
2022-11-25T00:38:28.764Z,30.88
2022-11-25T00:43:50.605Z,31.25
2022-11-25T00:49:12.386Z,30.25
2022-11-25T00:54:34.525Z,31.48
2022-11-25T00:59:56.571Z,32.50
2022-11-25T01:05:18.325Z,31.27
2022-11-25T01:10:40.101Z,33.67
2022-11-25T01:16:06.238Z,31.90
2022-11-25T01:21:31.021Z,32.55
2022-11-25T01:26:54.887Z,32.33
2022-11-25T01:32:16.657Z,31.70
2022-11-25T01:37:38.679Z,32.20
2022-11-25T01:43:00.505Z,30.00
2022-11-25T01:48:27.832Z,31.38
2022-11-25T01:53:51.480Z,31.23
2022-11-25T01:59:14.058Z,30.08
2022-11-25T02:04:39.239Z,31.30
2022-11-25T02:10:06.262Z,31.45
2022-11-25T02:15:31.493Z,34.28
2022-11-25T02:20:53.728Z,30.20
2022-11-25T02:26:15.859Z,32.97
2022-11-25T02:31:37.680Z,32.00
2022-11-25T02:36:59.878Z,32.10
2022-11-25T02:42:23.805Z,32.80
2022-11-25T02:47:45.583Z,30.58
2022-11-25T02:53:07.419Z,30.75
2022-11-25T02:58:29.678Z,30.55
2022-11-25T03:03:51.430Z,30.65
2022-11-25T03:09:13.209Z,33.75
2022-11-25T03:14:35.160Z,35.03
2022-11-25T03:19:57.169Z,30.90
2022-11-25T03:25:19.126Z,35.58
2022-11-25T03:30:41.189Z,33.78
2022-11-25T03:36:03.170Z,32.45
2022-11-25T03:41:24.981Z,31.40
2022-11-25T03:46:46.796Z,34.20
2022-11-25T03:52:08.747Z,33.42
2022-11-25T03:57:30.680Z,33.85
2022-11-25T04:02:52.840Z,35.53
2022-11-25T04:08:14.690Z,33.40
2022-11-25T04:13:36.558Z,35.42
2022-11-25T04:18:58.343Z,35.78
2022-11-25T04:24:20.854Z,35.88
2022-11-25T04:29:42.627Z,35.17
2022-11-25T04:35:05.151Z,36.55
2022-11-25T04:40:26.923Z,33.65
2022-11-25T04:46:13.145Z,36.33
2022-11-25T04:51:30.755Z,36.28
2022-11-25T04:56:52.579Z,38.58
2022-11-25T05:02:25.975Z,37.15
2022-11-25T05:07:48.075Z,36.35
2022-11-25T05:13:09.982Z,36.63
2022-11-25T05:18:31.769Z,38.03
2022-11-25T05:23:55.955Z,40.92
2022-11-25T05:29:18.255Z,39.53
2022-11-25T05:34:40.987Z,39.35
2022-11-25T05:40:03.124Z,40.58
2022-11-25T05:45:24.913Z,39.10
2022-11-25T05:50:46.670Z,37.72
2022-11-25T05:56:10.203Z,41.38
2022-11-25T06:01:32.246Z,38.88
2022-11-25T06:06:54.053Z,40.63
2022-11-25T06:12:15.873Z,37.92
2022-11-25T06:17:37.891Z,37.80
2022-11-25T06:22:59.819Z,38.85
2022-11-25T06:28:21.648Z,44.72
2022-11-25T06:33:46.772Z,37.08
2022-11-25T06:39:08.979Z,36.70
2022-11-25T06:44:30.797Z,35.67
2022-11-25T06:49:52.660Z,35.75
2022-11-25T06:55:14.611Z,31.05
2022-11-25T07:00:36.351Z,32.10
2022-11-25T07:05:59.493Z,33.20
2022-11-25T07:11:27.502Z,26.27
2022-11-25T07:16:49.324Z,26.00
2022-11-25T07:22:11.179Z,25.38
2022-11-25T07:27:35.141Z,25.50
2022-11-25T07:32:56.989Z,25.63
2022-11-25T07:38:18.844Z,28.90
2022-11-25T07:43:43.862Z,26.98
2022-11-25T07:49:08.507Z,28.77
2022-11-25T07:54:30.315Z,28.55
2022-11-25T07:59:52.267Z,28.27
2022-11-25T08:05:14.211Z,29.30
2022-11-25T08:10:40.140Z,28.77
2022-11-25T08:16:02.536Z,30.10
2022-11-25T08:21:25.093Z,32.05
2022-11-25T08:26:46.992Z,30.27
2022-11-25T08:32:11.980Z,29.95
2022-11-25T08:37:33.997Z,31.52
2022-11-25T08:42:55.789Z,32.20
2022-11-25T08:48:19.625Z,32.72
2022-11-25T08:53:43.258Z,32.53
2022-11-25T08:59:05.336Z,30.48
2022-11-25T09:04:27.183Z,31.17
2022-11-25T09:09:49.074Z,31.40
2022-11-25T09:15:11.280Z,31.77
2022-11-25T09:20:33.934Z,29.27
2022-11-25T09:25:57.729Z,29.77
2022-11-25T09:31:20.293Z,31.42
2022-11-25T09:36:44.335Z,31.42
2022-11-25T09:42:08.863Z,32.83
2022-11-25T09:47:57.204Z,31.63
2022-11-25T09:53:35.071Z,37.83
2022-11-25T09:59:05.502Z,31.73
2022-11-25T10:04:34.606Z,32.40
2022-11-25T10:09:56.682Z,30.75
2022-11-25T10:15:25.119Z,32.85
2022-11-25T10:20:50.674Z,31.30
2022-11-25T10:26:14.904Z,33.30
2022-11-25T10:31:37.274Z,33.30
2022-11-25T10:37:02.116Z,31.02
2022-11-25T10:42:26.946Z,31.88
2022-11-25T10:48:11.685Z,31.70
2022-11-25T10:53:33.506Z,31.75
2022-11-25T10:58:55.343Z,31.55
2022-11-25T11:04:17.198Z,32.42
2022-11-25T11:09:40.213Z,32.50
2022-11-25T11:15:22.027Z,32.20
2022-11-25T11:20:50.300Z,35.83
2022-11-25T11:26:23.403Z,31.27
2022-11-25T11:31:48.956Z,34.30
2022-11-25T11:37:33.888Z,34.77
2022-11-25T11:43:34.285Z,33.83
2022-11-25T11:49:05.156Z,34.13
2022-11-25T11:54:52.549Z,32.03
2022-11-25T12:00:17.580Z,33.50
2022-11-25T12:05:39.738Z,31.33
2022-11-25T12:11:12.465Z,34.95
2022-11-25T12:16:40.296Z,34.38
2022-11-25T12:22:19.777Z,33.70
2022-11-25T12:28:06.908Z,35.08
2022-11-25T12:33:40.156Z,33.33
2022-11-25T12:39:12.503Z,34.50
2022-11-25T12:44:49.480Z,34.70
2022-11-25T12:50:36.677Z,34.95
2022-11-25T12:56:02.681Z,35.80
2022-11-25T13:01:39.886Z,33.90
2022-11-25T13:07:10.149Z,35.30
2022-11-25T13:13:05.198Z,35.00
2022-11-25T13:18:30.933Z,36.77
2022-11-25T13:23:55.578Z,36.85
2022-11-25T13:29:17.719Z,35.83
2022-11-25T13:34:39.645Z,34.38
2022-11-25T13:40:23.330Z,35.13
2022-11-25T13:45:45.358Z,33.92
2022-11-25T13:51:24.692Z,36.55
2022-11-25T13:57:00.040Z,36.75
2022-11-25T14:02:28.187Z,37.60
2022-11-25T14:07:59.321Z,38.00
2022-11-25T14:13:51.951Z,34.30
2022-11-25T14:19:51.124Z,35.30
2022-11-25T14:25:24.542Z,37.55
2022-11-25T14:30:53.613Z,36.88
2022-11-25T14:36:21.655Z,38.85
2022-11-25T14:41:57.660Z,37.70
2022-11-25T14:47:24.095Z,37.20
2022-11-25T14:58:12.509Z,37.15
2022-11-25T15:03:34.514Z,36.80
2022-11-25T15:08:58.747Z,38.70
2022-11-25T15:14:26.488Z,39.03
2022-11-25T15:19:48.484Z,40.58
2022-11-25T15:25:15.035Z,38.30
2022-11-25T15:35:58.622Z,38.92
2022-11-25T15:41:31.954Z,39.30
2022-11-25T15:47:01.721Z,39.33
2022-11-25T15:52:24.912Z,38.95
2022-11-25T15:57:51.288Z,39.20
2022-11-25T16:08:55.378Z,37.33
2022-11-25T16:14:28.247Z,37.08
2022-11-25T16:19:50.368Z,42.78
2022-11-25T16:25:16.188Z,39.20
2022-11-25T16:30:38.117Z,40.07
2022-11-25T16:36:01.560Z,38.80
2022-11-25T16:41:25.707Z,39.75
2022-11-25T16:46:47.568Z,40.55
2022-11-25T16:52:09.465Z,40.80
2022-11-25T16:57:31.309Z,38.10
2022-11-25T17:02:53.133Z,37.67
2022-11-25T17:08:15.027Z,38.72
2022-11-25T17:13:42.066Z,38.35
2022-11-25T17:19:03.911Z,38.42
2022-11-25T17:24:25.769Z,38.88
2022-11-25T17:29:48.772Z,37.50
2022-11-25T17:35:19.242Z,38.60
2022-11-25T17:40:43.113Z,37.00
2022-11-25T17:46:05.094Z,40.00
2022-11-25T17:51:26.909Z,40.35
2022-11-25T17:56:52.327Z,39.55
2022-11-25T18:02:19.627Z,45.10
2022-11-25T18:07:43.186Z,40.97
2022-11-25T18:13:05.628Z,43.65
2022-11-25T18:18:27.471Z,46.75
2022-11-25T18:23:49.314Z,45.33
2022-11-25T18:29:24.393Z,49.30
2022-11-25T18:34:46.666Z,50.72
2022-11-25T18:40:09.343Z,54.45
2022-11-25T18:45:36.488Z,53.63
2022-11-25T18:50:58.457Z,54.92
2022-11-25T18:56:20.279Z,56.70
2022-11-25T19:01:46.828Z,53.58
2022-11-25T19:07:11.435Z,55.28
2022-11-25T19:12:33.375Z,52.35
2022-11-25T19:18:01.296Z,50.78
2022-11-25T19:23:25.301Z,50.55
2022-11-25T19:28:50.015Z,51.17
2022-11-25T19:34:25.788Z,51.50
2022-11-25T19:39:50.178Z,48.97
2022-11-25T19:45:13.089Z,51.47
2022-11-25T19:50:38.440Z,51.85
2022-11-25T19:56:00.207Z,52.55
2022-11-25T20:01:30.545Z,52.97
2022-11-25T20:06:52.419Z,52.70
2022-11-25T20:12:28.001Z,50.42
2022-11-25T20:17:55.952Z,50.40
2022-11-25T20:23:25.908Z,52.30
2022-11-25T20:28:47.733Z,50.47
2022-11-25T20:34:09.562Z,51.75
2022-11-25T20:39:31.415Z,50.72
2022-11-25T20:44:57.329Z,48.47
2022-11-25T20:55:43.384Z,53.28
2022-11-25T21:01:05.425Z,52.72
2022-11-25T21:06:29.929Z,56.90
2022-11-25T21:11:51.768Z,53.17
2022-11-25T21:17:13.622Z,50.33
2022-11-25T21:22:41.001Z,56.10
2022-11-25T21:28:04.042Z,52.30
2022-11-25T21:33:25.851Z,55.17
2022-11-25T21:38:49.843Z,54.92
2022-11-25T21:44:19.293Z,60.50
2022-11-25T21:49:41.379Z,54.85
2022-11-25T21:55:03.302Z,59.72
2022-11-25T22:00:26.041Z,54.75
2022-11-25T22:05:50.089Z,53.42
2022-11-25T22:11:14.917Z,55.10
2022-11-25T22:16:36.837Z,53.78
2022-11-25T22:21:58.824Z,54.38
2022-11-25T22:27:25.909Z,58.45
2022-11-25T22:32:55.951Z,55.10
2022-11-25T22:38:18.763Z,58.53
2022-11-25T22:43:51.228Z,58.65
2022-11-25T22:49:33.287Z,60.83
2022-11-25T22:54:57.973Z,67.93
2022-11-25T23:00:23.128Z,65.03
2022-11-25T23:05:45.074Z,60.70
2022-11-25T23:11:07.176Z,71.53
2022-11-25T23:16:29.099Z,62.70
2022-11-25T23:21:50.917Z,60.22
2022-11-25T23:27:13.775Z,56.97
2022-11-25T23:32:35.741Z,55.35
2022-11-25T23:37:58.284Z,62.03
2022-11-25T23:43:20.230Z,60.03
2022-11-25T23:48:45.778Z,61.03
2022-11-25T23:54:14.775Z,58.60
2022-11-25T23:59:36.548Z,65.00
